createdAt,value
2023-12-11T00:01:27.879Z,100.00
2023-12-11T00:03:59.485Z,100.00
2023-12-11T00:06:31.490Z,100.00
2023-12-11T00:09:02.407Z,100.00
2023-12-11T00:11:32.845Z,100.00
2023-12-11T00:14:03.461Z,100.00
2023-12-11T00:16:38.345Z,100.00
2023-12-11T00:19:12.791Z,100.00
2023-12-11T00:21:43.924Z,100.00
2023-12-11T00:24:15.383Z,100.00
2023-12-11T00:26:45.785Z,100.00
2023-12-11T00:29:16.381Z,100.00
2023-12-11T00:31:50.092Z,100.00
2023-12-11T00:34:20.640Z,100.00
2023-12-11T00:36:51.448Z,100.00
2023-12-11T00:39:22.421Z,100.00
2023-12-11T00:41:54.439Z,100.00
2023-12-11T00:44:28.710Z,100.00
2023-12-11T00:47:05.412Z,100.00
2023-12-11T00:49:37.582Z,100.00
2023-12-11T00:52:09.373Z,100.00
2023-12-11T00:54:39.847Z,100.00
2023-12-11T00:57:10.683Z,100.00
2023-12-11T00:59:41.101Z,100.00
2023-12-11T01:02:15.883Z,100.00
2023-12-11T01:04:48.086Z,100.00
2023-12-11T01:07:21.161Z,100.00
2023-12-11T01:09:51.622Z,100.00
2023-12-11T01:12:23.406Z,100.00
2023-12-11T01:14:54.155Z,100.00
2023-12-11T01:17:38.488Z,100.00
2023-12-11T01:20:12.595Z,100.00
2023-12-11T01:22:43.423Z,100.00
2023-12-11T01:25:15.455Z,100.00
2023-12-11T01:27:45.911Z,100.00
2023-12-11T01:30:18.425Z,100.00
2023-12-11T01:32:51.585Z,100.00
2023-12-11T01:35:22.432Z,100.00
2023-12-11T01:37:53.391Z,100.00
2023-12-11T01:40:23.885Z,100.00
2023-12-11T01:43:04.293Z,100.00
2023-12-11T01:45:41.359Z,100.00
2023-12-11T01:48:16.373Z,100.00
2023-12-11T01:50:49.393Z,100.00
2023-12-11T01:53:20.045Z,100.00
2023-12-11T01:55:52.227Z,100.00
2023-12-11T01:58:24.396Z,100.00
2023-12-11T02:00:56.637Z,100.00
2023-12-11T02:03:29.948Z,100.00
2023-12-11T02:06:00.780Z,100.00
2023-12-11T02:08:33.229Z,100.00
2023-12-11T02:11:04.691Z,100.00
2023-12-11T02:13:36.415Z,100.00
2023-12-11T02:16:07.928Z,100.00
2023-12-11T02:18:41.246Z,100.00
2023-12-11T02:21:12.330Z,100.00
2023-12-11T02:23:51.456Z,100.00
2023-12-11T02:26:26.406Z,100.00
2023-12-11T02:28:58.408Z,100.00
2023-12-11T02:31:30.389Z,100.00
2023-12-11T02:34:01.474Z,100.00
2023-12-11T02:36:32.008Z,100.00
2023-12-11T02:39:03.843Z,100.00
2023-12-11T02:41:37.869Z,100.00
2023-12-11T02:44:10.088Z,100.00
2023-12-11T02:46:42.372Z,100.00
2023-12-11T02:49:14.591Z,100.00
2023-12-11T02:51:45.059Z,100.00
2023-12-11T02:54:15.548Z,100.00
2023-12-11T02:56:49.391Z,100.00
2023-12-11T02:59:19.815Z,100.00
2023-12-11T03:01:51.441Z,100.00
2023-12-11T03:04:22.765Z,100.00
2023-12-11T03:06:55.438Z,100.00
2023-12-11T03:09:28.584Z,100.00
2023-12-11T03:12:01.962Z,100.00
2023-12-11T03:14:32.370Z,100.00
2023-12-11T03:17:03.334Z,100.00
2023-12-11T03:19:35.531Z,100.00
2023-12-11T03:22:06.124Z,100.00
2023-12-11T03:24:37.117Z,100.00
2023-12-11T03:27:10.367Z,100.00
2023-12-11T03:29:42.816Z,100.00
2023-12-11T03:32:13.399Z,100.00
2023-12-11T03:34:44.448Z,100.00
2023-12-11T03:37:18.438Z,100.00
2023-12-11T03:39:49.280Z,100.00
2023-12-11T03:42:22.780Z,100.00
2023-12-11T03:44:55.517Z,100.00
2023-12-11T03:47:27.194Z,100.00
2023-12-11T03:49:59.145Z,100.00
2023-12-11T03:52:30.399Z,100.00
2023-12-11T03:55:02.670Z,100.00
2023-12-11T03:57:36.392Z,100.00
2023-12-11T04:00:07.754Z,100.00
2023-12-11T04:02:38.237Z,100.00
2023-12-11T04:05:10.139Z,100.00
2023-12-11T04:07:41.902Z,100.00
2023-12-11T04:10:14.042Z,100.00
2023-12-11T04:12:48.397Z,100.00
2023-12-11T04:15:19.376Z,100.00
2023-12-11T04:17:50.370Z,100.00
2023-12-11T04:20:21.371Z,100.00
2023-12-11T04:22:54.382Z,100.00
2023-12-11T04:25:25.342Z,100.00
2023-12-11T04:28:01.411Z,100.00
2023-12-11T04:30:31.893Z,100.00
2023-12-11T04:33:05.641Z,100.00
2023-12-11T04:35:36.074Z,100.00
2023-12-11T04:38:06.492Z,100.00
2023-12-11T04:40:37.411Z,100.00
2023-12-11T04:43:12.460Z,100.00
2023-12-11T04:45:45.364Z,100.00
2023-12-11T04:48:15.991Z,100.00
2023-12-11T04:50:47.250Z,100.00
2023-12-11T04:53:19.336Z,100.00
2023-12-11T04:55:50.490Z,100.00
2023-12-11T04:58:24.381Z,100.00
2023-12-11T05:00:54.886Z,100.00
2023-12-11T05:03:25.323Z,100.00
2023-12-11T05:05:55.777Z,100.00
2023-12-11T05:08:29.047Z,100.00
2023-12-11T05:11:01.134Z,100.00
2023-12-11T05:13:34.195Z,100.00
2023-12-11T05:16:05.471Z,100.00
2023-12-11T05:18:37.132Z,100.00
2023-12-11T05:21:10.533Z,100.00
2023-12-11T05:23:42.097Z,100.00
2023-12-11T05:26:12.573Z,100.00
2023-12-11T05:28:45.797Z,100.00
2023-12-11T05:31:16.352Z,100.00
2023-12-11T05:33:46.983Z,100.00
2023-12-11T05:36:19.058Z,100.00
2023-12-11T05:38:50.317Z,100.00
2023-12-11T05:41:21.582Z,100.00
2023-12-11T05:43:58.805Z,100.00
2023-12-11T05:46:30.470Z,100.00
2023-12-11T05:49:01.404Z,100.00
2023-12-11T05:51:32.320Z,100.00
2023-12-11T05:54:03.533Z,100.00
2023-12-11T05:56:38.357Z,100.00
2023-12-11T05:59:12.018Z,100.00
2023-12-11T06:01:44.461Z,100.00
2023-12-11T06:04:15.527Z,100.00
2023-12-11T06:06:48.336Z,100.00
2023-12-11T06:09:19.351Z,100.00
2023-12-11T06:11:49.820Z,100.00
2023-12-11T06:14:24.768Z,100.00
2023-12-11T06:16:59.260Z,100.00
2023-12-11T06:19:31.405Z,100.00
2023-12-11T06:22:02.269Z,100.00
2023-12-11T06:24:33.335Z,100.00
2023-12-11T06:27:04.369Z,100.00
2023-12-11T06:29:38.377Z,100.00
2023-12-11T06:32:10.328Z,100.00
2023-12-11T06:34:40.920Z,100.00
2023-12-11T06:37:15.436Z,100.00
2023-12-11T06:39:46.725Z,100.00
2023-12-11T06:42:17.218Z,100.00
2023-12-11T06:44:50.329Z,100.00
2023-12-11T06:47:21.363Z,100.00
2023-12-11T06:49:52.514Z,100.00
2023-12-11T06:52:23.057Z,100.00
2023-12-11T06:54:55.671Z,100.00
2023-12-11T06:57:28.586Z,100.00
2023-12-11T07:00:06.900Z,100.00
2023-12-11T07:02:38.470Z,100.00
2023-12-11T07:05:11.177Z,100.00
2023-12-11T07:07:42.454Z,100.00
2023-12-11T07:10:17.374Z,100.00
2023-12-11T07:12:50.726Z,100.00
2023-12-11T07:15:27.648Z,100.00
2023-12-11T07:17:59.403Z,100.00
2023-12-11T07:20:29.864Z,100.00
2023-12-11T07:23:01.673Z,100.00
2023-12-11T07:25:34.152Z,100.00
2023-12-11T07:28:05.128Z,100.00
2023-12-11T07:30:38.430Z,100.00
2023-12-11T07:33:10.113Z,100.00
2023-12-11T07:35:40.748Z,100.00
2023-12-11T07:38:12.167Z,100.00
2023-12-11T07:40:43.054Z,100.00
2023-12-11T07:43:13.507Z,100.00
2023-12-11T07:45:48.088Z,100.00
2023-12-11T07:48:20.716Z,100.00
2023-12-11T07:50:51.327Z,100.00
2023-12-11T07:53:22.328Z,100.00
2023-12-11T07:55:54.017Z,100.00
2023-12-11T07:58:25.442Z,100.00
2023-12-11T08:00:58.797Z,100.00
2023-12-11T08:03:30.289Z,100.00
2023-12-11T08:06:01.336Z,100.00
2023-12-11T08:08:31.847Z,100.00
2023-12-11T08:11:02.304Z,100.00
2023-12-11T08:13:34.326Z,100.00
2023-12-11T08:16:08.885Z,100.00
2023-12-11T08:18:41.276Z,100.00
2023-12-11T08:21:12.260Z,100.00
2023-12-11T08:23:45.335Z,100.00
2023-12-11T08:26:19.797Z,100.00
2023-12-11T08:28:52.272Z,100.00
2023-12-11T08:31:27.011Z,100.00
2023-12-11T08:33:57.612Z,100.00
2023-12-11T08:36:28.294Z,100.00
2023-12-11T08:38:59.468Z,100.00
2023-12-11T08:41:32.077Z,100.00
2023-12-11T08:44:02.604Z,100.00
2023-12-11T08:46:36.324Z,100.00
2023-12-11T08:49:07.211Z,100.00
2023-12-11T08:51:37.895Z,100.00
2023-12-11T08:54:08.743Z,100.00
2023-12-11T08:56:41.591Z,100.00
2023-12-11T08:59:13.296Z,100.00
2023-12-11T09:01:48.076Z,100.00
2023-12-11T09:04:22.421Z,100.00
2023-12-11T09:06:54.394Z,100.00
2023-12-11T09:09:25.300Z,100.00
2023-12-11T09:11:56.054Z,100.00
2023-12-11T09:14:26.615Z,100.00
2023-12-11T09:17:00.302Z,100.00
2023-12-11T09:19:40.389Z,100.00
2023-12-11T09:22:19.109Z,100.00
2023-12-11T09:24:50.341Z,100.00
2023-12-11T09:27:21.505Z,100.00
2023-12-11T09:29:53.298Z,100.00
2023-12-11T09:32:27.711Z,100.00
2023-12-11T09:34:59.282Z,100.00
2023-12-11T09:37:31.567Z,100.00
2023-12-11T09:40:03.149Z,100.00
2023-12-11T09:42:35.287Z,100.00
2023-12-11T09:45:07.287Z,100.00
2023-12-11T09:47:45.676Z,100.00
2023-12-11T09:50:17.784Z,100.00
2023-12-11T09:52:48.609Z,100.00
2023-12-11T09:55:19.713Z,100.00
2023-12-11T09:57:52.291Z,100.00
2023-12-11T10:00:24.273Z,100.00
2023-12-11T10:02:58.778Z,96.77
2023-12-11T10:05:30.392Z,96.38
2023-12-11T10:08:02.309Z,95.13
2023-12-11T10:10:38.719Z,96.49
2023-12-11T10:13:09.998Z,95.75
2023-12-11T10:15:40.753Z,96.20
2023-12-11T10:18:15.864Z,93.50
2023-12-11T10:20:47.437Z,94.34
2023-12-11T10:23:23.287Z,97.10
2023-12-11T10:25:57.522Z,100.00
2023-12-11T10:28:30.789Z,100.00
2023-12-11T10:31:04.319Z,100.00
2023-12-11T10:33:37.870Z,100.00
2023-12-11T10:36:15.250Z,100.00
2023-12-11T10:38:48.266Z,100.00
2023-12-11T10:41:29.280Z,100.00
2023-12-11T10:44:12.048Z,100.00
2023-12-11T10:46:49.270Z,100.00
2023-12-11T10:49:23.189Z,99.84
2023-12-11T10:51:56.785Z,93.99
2023-12-11T10:54:28.125Z,92.09
2023-12-11T10:57:00.699Z,90.23
2023-12-11T10:59:33.240Z,90.22
2023-12-11T11:02:05.167Z,88.23
2023-12-11T11:04:45.254Z,85.99
2023-12-11T11:07:34.077Z,86.04
2023-12-11T11:10:10.716Z,89.17
2023-12-11T11:12:49.544Z,93.03
2023-12-11T11:15:24.753Z,95.38
2023-12-11T11:18:06.739Z,97.10
2023-12-11T11:20:43.284Z,98.69
2023-12-11T11:23:28.420Z,100.00
2023-12-11T11:25:59.585Z,100.00
2023-12-11T11:28:42.968Z,100.00
2023-12-11T11:31:23.874Z,100.00
2023-12-11T11:34:00.721Z,100.00
2023-12-11T11:36:53.033Z,100.00
2023-12-11T11:39:25.795Z,100.00
2023-12-11T11:42:01.266Z,100.00
2023-12-11T11:44:36.280Z,100.00
2023-12-11T11:47:07.012Z,100.00
2023-12-11T11:49:38.478Z,100.00
2023-12-11T11:52:13.637Z,100.00
2023-12-11T11:54:46.482Z,100.00
2023-12-11T11:57:17.689Z,100.00
2023-12-11T11:59:49.706Z,100.00
2023-12-11T16:55:31.022Z,100.00
2023-12-11T16:58:04.271Z,100.00
2023-12-11T17:00:35.248Z,100.00
2023-12-11T17:03:06.766Z,100.00
2023-12-11T17:05:38.085Z,100.00
2023-12-11T17:08:09.076Z,100.00
2023-12-11T17:10:44.127Z,100.00
2023-12-11T17:13:14.694Z,100.00
2023-12-11T17:15:45.644Z,100.00
2023-12-11T17:18:16.257Z,100.00
2023-12-11T17:20:46.742Z,100.00
2023-12-11T17:23:17.469Z,100.00
2023-12-11T17:25:50.599Z,100.00
2023-12-11T17:28:21.085Z,100.00
2023-12-11T17:30:53.655Z,100.00
2023-12-11T17:33:24.317Z,100.00
2023-12-11T17:35:54.761Z,100.00
2023-12-11T17:38:25.304Z,100.00
2023-12-11T17:40:58.386Z,100.00
2023-12-11T17:43:28.851Z,100.00
2023-12-11T17:45:59.337Z,100.00
2023-12-11T17:48:29.932Z,100.00
2023-12-11T17:51:02.144Z,100.00
2023-12-11T17:53:33.741Z,100.00
2023-12-11T17:56:09.748Z,100.00
2023-12-11T17:58:42.841Z,100.00
2023-12-11T18:01:14.360Z,100.00
2023-12-11T18:03:45.037Z,100.00
2023-12-11T18:06:19.830Z,100.00
2023-12-11T18:08:50.357Z,100.00
2023-12-11T18:11:23.580Z,100.00
2023-12-11T18:13:54.033Z,100.00
2023-12-11T18:16:25.774Z,100.00
2023-12-11T18:18:56.619Z,100.00
2023-12-11T18:21:28.156Z,100.00
2023-12-11T18:23:58.643Z,100.00
2023-12-11T18:26:31.794Z,100.00
2023-12-11T18:29:02.349Z,100.00
2023-12-11T18:31:32.941Z,100.00
2023-12-11T18:34:03.672Z,100.00
2023-12-11T18:36:34.370Z,100.00
2023-12-11T18:39:04.923Z,100.00
2023-12-11T18:41:37.974Z,100.00
2023-12-11T18:44:08.685Z,100.00
2023-12-11T18:46:39.717Z,100.00
2023-12-11T18:49:10.456Z,100.00
2023-12-11T18:51:41.624Z,100.00
2023-12-11T18:54:13.477Z,100.00
2023-12-11T18:56:46.951Z,100.00
2023-12-11T18:59:17.658Z,100.00
2023-12-11T19:01:48.496Z,100.00
2023-12-11T19:04:19.460Z,100.00
2023-12-11T19:06:50.390Z,100.00
2023-12-11T19:09:23.895Z,100.00
2023-12-11T19:11:59.670Z,100.00
2023-12-11T19:14:30.598Z,100.00
2023-12-11T19:17:01.163Z,100.00
2023-12-11T19:19:31.849Z,100.00
2023-12-11T19:22:02.552Z,100.00
2023-12-11T19:24:33.134Z,100.00
2023-12-11T19:27:06.325Z,100.00
2023-12-11T19:29:36.799Z,100.00
2023-12-11T19:32:08.406Z,100.00
2023-12-11T19:34:39.653Z,100.00
2023-12-11T19:37:10.971Z,100.00
2023-12-11T19:39:42.107Z,100.00
2023-12-11T19:42:15.328Z,100.00
2023-12-11T19:44:45.799Z,100.00
2023-12-11T19:47:18.274Z,100.00
2023-12-11T19:49:48.880Z,100.00
2023-12-11T19:52:19.546Z,100.00
2023-12-11T19:54:50.231Z,100.00
2023-12-11T19:57:24.157Z,100.00
2023-12-11T19:59:54.729Z,100.00
2023-12-11T20:02:26.350Z,100.00
2023-12-11T20:04:56.842Z,100.00
2023-12-11T20:07:28.078Z,100.00
2023-12-11T20:09:58.770Z,100.00
2023-12-11T20:12:35.187Z,100.00
2023-12-11T20:15:12.224Z,100.00
2023-12-11T20:17:43.465Z,100.00
2023-12-11T20:20:14.884Z,100.00
2023-12-11T20:22:45.497Z,100.00
2023-12-11T20:25:16.162Z,100.00
2023-12-11T20:27:49.340Z,100.00
2023-12-11T20:30:20.955Z,100.00
2023-12-11T20:32:51.541Z,100.00
2023-12-11T20:35:22.106Z,100.00
2023-12-11T20:37:52.745Z,100.00
2023-12-11T20:40:23.444Z,100.00
2023-12-11T20:42:57.261Z,100.00
2023-12-11T20:45:27.844Z,100.00
2023-12-11T20:47:58.449Z,100.00
2023-12-11T20:50:30.108Z,100.00
2023-12-11T20:53:01.113Z,100.00
2023-12-11T20:55:33.093Z,100.00
2023-12-11T20:58:08.235Z,100.00
2023-12-11T21:00:39.176Z,100.00
2023-12-11T21:03:10.114Z,100.00
2023-12-11T21:05:42.742Z,100.00
2023-12-11T21:08:14.195Z,100.00
2023-12-11T21:10:46.251Z,100.00
2023-12-11T21:13:19.609Z,100.00
2023-12-11T21:15:52.999Z,100.00
2023-12-11T21:18:26.234Z,100.00
2023-12-11T21:20:57.068Z,100.00
2023-12-11T21:23:27.994Z,100.00
2023-12-11T21:25:59.385Z,100.00
2023-12-11T21:28:32.856Z,100.00
2023-12-11T21:31:06.462Z,100.00
2023-12-11T21:33:37.062Z,100.00
2023-12-11T21:36:08.130Z,100.00
2023-12-11T21:38:39.094Z,100.00
2023-12-11T21:41:17.283Z,100.00
2023-12-11T21:43:53.151Z,100.00
2023-12-11T21:46:27.395Z,100.00
2023-12-11T21:49:02.256Z,100.00
2023-12-11T21:51:35.288Z,100.00
2023-12-11T21:54:06.957Z,100.00
2023-12-11T21:56:38.119Z,100.00
2023-12-11T21:59:16.754Z,100.00
2023-12-11T22:01:49.932Z,100.00
2023-12-11T22:04:22.533Z,100.00
2023-12-11T22:06:53.522Z,100.00
2023-12-11T22:09:25.693Z,100.00
2023-12-11T22:11:57.407Z,100.00
2023-12-11T22:14:30.855Z,100.00
2023-12-11T22:17:01.366Z,100.00
2023-12-11T22:19:32.977Z,100.00
2023-12-11T22:22:03.698Z,100.00
2023-12-11T22:24:34.220Z,100.00
2023-12-11T22:27:05.029Z,100.00
2023-12-11T22:29:39.338Z,100.00
2023-12-11T22:32:12.507Z,100.00
2023-12-11T22:34:43.959Z,100.00
2023-12-11T22:37:17.190Z,100.00
2023-12-11T22:39:48.153Z,100.00
2023-12-11T22:42:20.631Z,100.00
2023-12-11T22:44:54.042Z,100.00
2023-12-11T22:47:24.645Z,100.00
2023-12-11T22:49:55.333Z,100.00
2023-12-11T22:52:26.472Z,100.00
2023-12-11T22:54:57.082Z,100.00
2023-12-11T22:57:28.221Z,100.00
2023-12-11T23:00:01.557Z,100.00
2023-12-11T23:02:32.276Z,100.00
2023-12-11T23:05:03.488Z,100.00
2023-12-11T23:07:34.753Z,100.00
2023-12-11T23:10:05.999Z,100.00
2023-12-11T23:12:36.664Z,100.00
2023-12-11T23:15:11.548Z,100.00
2023-12-11T23:17:44.007Z,100.00
2023-12-11T23:20:16.820Z,100.00
2023-12-11T23:22:47.896Z,100.00
2023-12-11T23:25:22.317Z,100.00
2023-12-11T23:27:53.245Z,100.00
2023-12-11T23:30:26.467Z,100.00
2023-12-11T23:32:57.063Z,100.00
2023-12-11T23:35:27.737Z,100.00
2023-12-11T23:38:00.631Z,100.00
2023-12-11T23:40:31.183Z,100.00
2023-12-11T23:43:01.812Z,100.00
2023-12-11T23:45:35.484Z,100.00
2023-12-11T23:48:07.647Z,100.00
2023-12-11T23:50:38.268Z,100.00
2023-12-11T23:53:10.725Z,100.00
2023-12-11T23:55:43.127Z,100.00
2023-12-11T23:58:14.439Z,100.00
